Time;durP1;ratioP1;P1;durP2;ratioP2;P2;SDS_P1;SDS_P2;PMS_P1;PMS_P2;Temp;Humidity;BMP_temperature;BMP_pressure;BME280_temperature;BME280_humidity;BME280_pressure;Samples;Min_cycle;Max_cycle;Signal;HPM_P1;HPM_P2
2024/02/05 00:00:06;;;;;;;12.10;1.80;;;11.20;99.90;;;;;;6307412;22;20070;-86
2024/02/05 00:02:40;;;;;;;12.02;2.10;;;11.10;99.90;;;;;;6335499;22;20305;-89
2024/02/05 00:05:10;;;;;;;18.10;2.67;;;11.10;99.90;;;;;;6335255;22;20094;-87
2024/02/05 00:07:36;;;;;;;22.23;3.22;;;11.10;99.90;;;;;;6281617;22;20502;-87
2024/02/05 00:10:08;;;;;;;21.85;3.33;;;11.10;99.90;;;;;;6307452;22;20011;-87
2024/02/05 00:12:34;;;;;;;16.83;2.25;;;11.10;99.90;;;;;;6307115;22;20057;-89
2024/02/05 00:15:00;;;;;;;12.15;2.15;;;11.10;99.90;;;;;;6281505;22;20422;-86
2024/02/05 00:17:25;;;;;;;21.38;3.00;;;11.10;99.90;;;;;;6306989;22;20038;-87
2024/02/05 00:19:54;;;;;;;19.73;2.95;;;11.00;99.90;;;;;;6307180;22;20033;-88
2024/02/05 00:22:20;;;;;;;17.98;3.28;;;11.00;99.90;;;;;;6280745;22;20010;-85
2024/02/05 00:24:46;;;;;;;26.23;3.08;;;11.00;99.90;;;;;;6307672;22;20015;-88
2024/02/05 00:27:12;;;;;;;20.83;2.35;;;11.00;99.90;;;;;;6280921;22;20003;-86
2024/02/05 00:29:37;;;;;;;22.23;3.70;;;11.00;99.90;;;;;;6281494;22;20018;-86
2024/02/05 00:32:04;;;;;;;21.10;2.92;;;11.00;99.90;;;;;;6281555;22;20007;-87
2024/02/05 00:34:30;;;;;;;19.05;3.25;;;10.90;99.90;;;;;;6281843;22;20021;-88
2024/02/05 00:36:56;;;;;;;19.77;2.85;;;10.90;99.90;;;;;;6307119;22;20053;-88
2024/02/05 00:39:21;;;;;;;19.48;3.28;;;10.90;99.90;;;;;;6307023;22;20011;-90
2024/02/05 00:41:47;;;;;;;24.73;2.88;;;11.00;99.90;;;;;;6305510;22;20006;-86
2024/02/05 00:44:13;;;;;;;16.95;2.15;;;11.00;99.90;;;;;;6281066;22;20003;-89
2024/02/05 00:46:38;;;;;;;23.42;3.97;;;10.90;99.90;;;;;;6281448;22;20049;-87
2024/02/05 00:49:05;;;;;;;21.63;3.78;;;10.90;99.90;;;;;;6281241;22;20125;-88
2024/02/05 00:51:30;;;;;;;16.65;2.85;;;10.90;99.90;;;;;;6281299;22;20395;-87
2024/02/05 00:53:57;;;;;;;16.88;2.55;;;10.90;99.90;;;;;;6307836;22;19999;-87
2024/02/05 00:56:23;;;;;;;22.17;3.10;;;10.90;99.90;;;;;;6283611;22;20006;-90
2024/02/05 00:58:49;;;;;;;27.30;3.47;;;10.90;99.90;;;;;;6284249;22;20308;-86
2024/02/05 01:01:15;;;;;;;21.20;2.80;;;10.90;99.90;;;;;;6335127;22;20010;-87
2024/02/05 01:03:42;;;;;;;19.63;3.22;;;10.90;99.90;;;;;;6283525;22;20014;-88
2024/02/05 01:06:08;;;;;;;22.15;2.83;;;10.80;99.90;;;;;;6308978;22;20037;-86
2024/02/05 01:08:35;;;;;;;18.40;2.40;;;10.80;99.90;;;;;;6283173;22;20009;-86
2024/02/05 01:11:01;;;;;;;23.60;3.78;;;10.80;99.90;;;;;;6309248;22;20443;-87
2024/02/05 01:13:26;;;;;;;24.15;3.03;;;10.80;99.90;;;;;;6282150;22;20041;-87
2024/02/05 01:15:52;;;;;;;17.35;2.20;;;10.80;99.90;;;;;;6282829;22;20512;-87
2024/02/05 01:18:18;;;;;;;18.63;2.40;;;10.80;99.90;;;;;;6308473;22;20331;-87
2024/02/05 01:20:44;;;;;;;19.38;2.95;;;10.80;99.90;;;;;;6308495;22;20068;-90
2024/02/05 01:23:10;;;;;;;20.63;3.00;;;10.80;99.90;;;;;;6309007;22;20014;-87
2024/02/05 01:25:36;;;;;;;19.77;3.22;;;10.80;99.90;;;;;;6309004;22;20021;-89
2024/02/05 01:28:03;;;;;;;25.38;3.33;;;10.80;99.90;;;;;;6308977;22;20331;-87
2024/02/05 01:30:28;;;;;;;21.77;2.30;;;10.80;99.90;;;;;;6309430;22;20007;-87
2024/02/05 01:32:54;;;;;;;20.70;2.90;;;10.70;99.90;;;;;;6282943;22;20082;-87
2024/02/05 01:35:20;;;;;;;23.52;2.53;;;10.70;99.90;;;;;;6308156;22;20282;-86
2024/02/05 01:37:46;;;;;;;20.98;3.17;;;10.80;99.90;;;;;;6282829;22;20011;-86
2024/02/05 01:40:11;;;;;;;22.83;3.28;;;10.70;99.90;;;;;;6308244;22;20386;-88
2024/02/05 01:42:38;;;;;;;21.48;2.55;;;10.70;99.90;;;;;;6334600;22;20085;-87
2024/02/05 01:45:04;;;;;;;20.70;3.03;;;10.60;99.90;;;;;;6336665;22;20041;-89
2024/02/05 01:47:32;;;;;;;26.10;4.03;;;10.60;99.90;;;;;;6282274;22;20015;-87
2024/02/05 01:49:59;;;;;;;35.90;4.85;;;10.60;99.90;;;;;;6282624;22;20214;-86
2024/02/05 01:52:25;;;;;;;23.77;3.13;;;10.50;99.90;;;;;;6335740;22;20518;-90
2024/02/05 01:54:52;;;;;;;21.77;3.35;;;10.50;99.90;;;;;;6308409;22;20382;-88
2024/02/05 01:57:17;;;;;;;25.00;3.47;;;10.50;99.90;;;;;;6308405;22;20304;-89
2024/02/05 01:59:44;;;;;;;23.38;3.53;;;10.50;99.90;;;;;;6282766;22;20089;-86
2024/02/05 02:02:10;;;;;;;25.20;3.55;;;10.40;99.90;;;;;;6308311;22;20014;-88
2024/02/05 02:04:36;;;;;;;30.83;4.25;;;10.40;99.90;;;;;;6335345;22;20002;-88
2024/02/05 02:07:03;;;;;;;19.35;3.83;;;10.40;99.90;;;;;;6282070;22;20052;-88
2024/02/05 02:09:30;;;;;;;24.25;3.95;;;10.40;99.90;;;;;;6308339;22;20006;-88
2024/02/05 02:11:56;;;;;;;21.33;3.33;;;10.40;99.90;;;;;;6282661;22;20021;-86
2024/02/05 02:14:23;;;;;;;26.27;3.88;;;10.40;99.90;;;;;;6282328;22;20018;-86
2024/02/05 02:16:50;;;;;;;23.80;3.35;;;10.40;99.90;;;;;;6307883;22;20003;-87
2024/02/05 02:19:42;;;;;;;23.50;3.60;;;10.30;99.90;;;;;;6282252;22;20006;-88
2024/02/05 02:22:23;;;;;;;20.48;3.10;;;10.30;99.90;;;;;;6334719;22;20439;-87
2024/02/05 02:24:49;;;;;;;19.23;2.80;;;10.20;99.90;;;;;;6334084;22;20011;-87
2024/02/05 02:27:15;;;;;;;25.13;3.90;;;10.10;99.90;;;;;;6281855;22;20037;-88
2024/02/05 02:29:42;;;;;;;27.73;4.18;;;10.10;99.90;;;;;;6307869;22;20007;-88
2024/02/05 02:32:22;;;;;;;28.75;3.00;;;10.00;99.90;;;;;;6308085;22;20060;-87
2024/02/05 02:34:50;;;;;;;24.33;3.40;;;10.00;99.90;;;;;;6335433;22;20010;-86
2024/02/05 02:37:19;;;;;;;32.08;5.03;;;10.00;99.90;;;;;;6307841;22;20011;-86
2024/02/05 02:39:58;;;;;;;26.08;3.92;;;9.90;99.90;;;;;;6308367;22;20010;-87
2024/02/05 02:42:25;;;;;;;33.22;4.15;;;9.90;99.90;;;;;;6303207;22;20007;-87
2024/02/05 02:44:54;;;;;;;23.77;4.15;;;9.90;99.90;;;;;;6308172;22;20445;-87
2024/02/05 02:47:20;;;;;;;21.70;3.88;;;9.90;99.90;;;;;;6333297;22;20452;-88
2024/02/05 02:49:46;;;;;;;22.27;4.05;;;9.90;99.90;;;;;;6282451;22;20003;-87
2024/02/05 02:52:11;;;;;;;25.42;3.60;;;10.00;99.90;;;;;;6281813;22;20085;-88
2024/02/05 02:54:37;;;;;;;22.65;3.45;;;9.90;99.90;;;;;;6308181;22;20014;-86
2024/02/05 02:57:03;;;;;;;27.98;3.15;;;10.00;99.90;;;;;;6308430;22;20357;-89
2024/02/05 02:59:28;;;;;;;26.60;3.83;;;10.00;99.90;;;;;;6334022;22;20057;-88
2024/02/05 03:01:54;;;;;;;28.17;4.40;;;10.00;99.90;;;;;;6282149;22;20053;-87
2024/02/05 03:04:20;;;;;;;25.88;3.65;;;10.00;99.90;;;;;;6335122;22;20073;-87
2024/02/05 03:06:45;;;;;;;22.27;3.85;;;10.00;99.90;;;;;;6307915;22;20462;-87
2024/02/05 03:09:11;;;;;;;27.67;4.00;;;10.00;99.90;;;;;;6307379;22;20060;-88
2024/02/05 03:11:37;;;;;;;23.33;4.35;;;10.00;99.90;;;;;;6335995;22;19998;-86
2024/02/05 03:14:02;;;;;;;22.60;3.58;;;10.00;99.90;;;;;;6308434;22;20003;-87
2024/02/05 03:16:28;;;;;;;18.60;3.42;;;10.00;99.90;;;;;;6282375;22;20011;-86
2024/02/05 03:18:54;;;;;;;23.63;4.28;;;10.00;99.90;;;;;;6335685;22;20007;-87
2024/02/05 03:21:19;;;;;;;24.13;5.75;;;10.00;99.90;;;;;;6307860;22;20006;-87
2024/02/05 03:23:45;;;;;;;28.73;4.45;;;10.00;99.90;;;;;;6307582;22;20007;-88
2024/02/05 03:26:11;;;;;;;29.05;4.65;;;10.00;99.90;;;;;;6281905;22;20084;-87
2024/02/05 03:28:36;;;;;;;29.48;4.63;;;10.00;99.90;;;;;;6333838;22;20045;-88
2024/02/05 03:31:06;;;;;;;25.17;4.32;;;10.00;99.90;;;;;;6307648;22;20003;-87
2024/02/05 03:33:32;;;;;;;26.63;4.53;;;10.00;99.90;;;;;;6281634;22;20009;-87
2024/02/05 03:35:58;;;;;;;24.92;4.18;;;10.00;99.90;;;;;;6335212;22;20006;-88
2024/02/05 03:38:23;;;;;;;23.08;4.75;;;10.00;99.90;;;;;;6333355;22;20081;-88
2024/02/05 03:40:49;;;;;;;29.98;5.35;;;10.00;99.90;;;;;;6307094;22;20003;-87
2024/02/05 03:43:15;;;;;;;29.05;4.32;;;10.00;99.90;;;;;;6307306;22;20047;-87
2024/02/05 03:45:42;;;;;;;24.88;4.25;;;10.00;99.90;;;;;;6307406;22;20067;-91
2024/02/05 03:48:08;;;;;;;29.17;5.85;;;10.00;99.90;;;;;;6281823;22;20383;-87
2024/02/05 03:50:34;;;;;;;23.98;5.00;;;10.00;99.90;;;;;;6281850;22;20022;-87
2024/02/05 03:53:00;;;;;;;29.27;5.90;;;10.00;99.90;;;;;;6281514;22;20003;-86
2024/02/05 03:55:26;;;;;;;25.65;5.25;;;10.00;99.90;;;;;;6307315;22;20014;-87
2024/02/05 03:58:00;;;;;;;22.80;4.82;;;10.00;99.90;;;;;;6307694;22;20033;-88
2024/02/05 04:00:26;;;;;;;31.58;5.75;;;10.00;99.90;;;;;;6335154;22;20061;-90
2024/02/05 04:02:52;;;;;;;28.20;5.75;;;10.00;99.90;;;;;;6307210;22;19999;-87
2024/02/05 04:05:18;;;;;;;26.50;4.97;;;10.00;99.90;;;;;;6306825;22;20087;-87
2024/02/05 04:07:43;;;;;;;29.90;4.88;;;10.00;99.90;;;;;;6281675;22;20010;-87
2024/02/05 04:10:09;;;;;;;34.50;4.97;;;10.00;99.90;;;;;;6307621;22;20026;-88
2024/02/05 04:12:35;;;;;;;25.00;3.97;;;10.00;99.90;;;;;;6307019;22;20007;-88
2024/02/05 04:15:01;;;;;;;28.27;6.05;;;9.90;99.90;;;;;;6307016;22;20419;-87
2024/02/05 04:17:27;;;;;;;30.83;4.93;;;10.00;99.90;;;;;;6281209;22;20081;-88
2024/02/05 04:19:53;;;;;;;28.88;5.07;;;10.00;99.90;;;;;;6280746;22;20026;-87
2024/02/05 04:22:19;;;;;;;26.00;4.30;;;9.90;99.90;;;;;;6281186;22;20086;-88
2024/02/05 04:24:44;;;;;;;35.17;5.07;;;10.00;99.90;;;;;;6333355;22;20003;-87
2024/02/05 04:27:10;;;;;;;22.02;4.15;;;10.00;99.90;;;;;;6307016;22;20011;-90
2024/02/05 04:29:36;;;;;;;21.63;5.05;;;9.90;99.90;;;;;;6308477;22;20339;-86
2024/02/05 04:32:02;;;;;;;26.35;5.22;;;10.00;99.90;;;;;;6308732;22;20010;-87
2024/02/05 04:34:28;;;;;;;28.15;5.07;;;10.00;99.90;;;;;;6282858;22;20003;-87
2024/02/05 04:36:54;;;;;;;23.33;5.72;;;10.00;99.90;;;;;;6309012;22;20082;-87
2024/02/05 04:39:21;;;;;;;21.92;4.20;;;9.90;99.90;;;;;;6308895;22;20007;-88
2024/02/05 04:41:47;;;;;;;30.90;5.35;;;10.00;99.90;;;;;;6308744;22;20077;-87
2024/02/05 04:44:14;;;;;;;21.08;3.30;;;10.00;99.90;;;;;;6281405;22;20027;-85
2024/02/05 04:46:40;;;;;;;31.50;4.40;;;9.90;99.90;;;;;;6309002;22;20065;-86
2024/02/05 04:49:06;;;;;;;27.70;5.35;;;9.90;99.90;;;;;;6308427;22;20011;-89
2024/02/05 04:51:31;;;;;;;25.15;4.65;;;9.90;99.90;;;;;;6308443;22;20010;-86
2024/02/05 04:53:57;;;;;;;28.83;4.63;;;9.90;99.90;;;;;;6282876;22;20003;-89
2024/02/05 04:56:23;;;;;;;20.80;3.97;;;9.90;99.90;;;;;;6282744;22;20060;-90
2024/02/05 04:58:49;;;;;;;30.50;4.40;;;10.00;99.90;;;;;;6308383;22;20060;-87
2024/02/05 05:01:15;;;;;;;24.20;4.35;;;9.90;99.90;;;;;;6308860;22;20393;-90
2024/02/05 05:03:40;;;;;;;25.75;3.65;;;9.90;99.90;;;;;;6283487;22;20002;-86
2024/02/05 05:06:06;;;;;;;25.73;4.70;;;9.90;99.90;;;;;;6308762;22;20019;-89
2024/02/05 05:08:33;;;;;;;33.30;5.13;;;9.90;99.90;;;;;;6334230;22;20339;-88
2024/02/05 05:10:58;;;;;;;27.10;4.13;;;9.90;99.90;;;;;;6308625;22;20068;-87
2024/02/05 05:13:24;;;;;;;19.60;4.25;;;9.90;99.90;;;;;;6334510;22;19999;-88
2024/02/05 05:15:50;;;;;;;26.20;3.50;;;9.90;99.90;;;;;;6308374;22;20017;-86
2024/02/05 05:18:15;;;;;;;28.08;4.00;;;9.90;99.90;;;;;;6333853;22;20402;-87
2024/02/05 05:20:42;;;;;;;24.35;4.53;;;9.90;99.90;;;;;;6308931;22;20431;-88
2024/02/05 05:23:08;;;;;;;24.83;4.05;;;9.90;99.90;;;;;;6283311;22;20039;-89
2024/02/05 05:25:34;;;;;;;26.55;4.18;;;9.90;99.90;;;;;;6308255;22;20022;-87
2024/02/05 05:28:00;;;;;;;23.05;3.65;;;9.90;99.90;;;;;;6282570;22;20003;-88
2024/02/05 05:30:26;;;;;;;25.15;4.63;;;9.90;99.90;;;;;;6283329;22;20002;-88
2024/02/05 05:32:52;;;;;;;28.35;4.55;;;9.90;99.90;;;;;;6309542;22;20009;-87
2024/02/05 05:35:17;;;;;;;29.20;3.90;;;9.90;99.90;;;;;;6334481;22;19999;-86
2024/02/05 05:37:43;;;;;;;21.58;4.15;;;9.90;99.90;;;;;;6308944;22;20065;-88
2024/02/05 05:40:10;;;;;;;23.90;3.50;;;9.90;99.90;;;;;;6308243;22;20003;-87
2024/02/05 05:42:36;;;;;;;21.33;3.58;;;9.80;99.90;;;;;;6334750;22;20006;-87
2024/02/05 05:45:03;;;;;;;28.10;4.22;;;9.80;99.90;;;;;;6307918;22;20022;-87
2024/02/05 05:47:29;;;;;;;21.95;4.22;;;9.80;99.90;;;;;;6281828;22;20003;-87
2024/02/05 05:49:54;;;;;;;26.73;4.63;;;9.80;99.90;;;;;;6308906;22;20117;-88
2024/02/05 05:52:21;;;;;;;16.63;3.78;;;9.90;99.90;;;;;;6308611;22;20336;-86
2024/02/05 05:54:47;;;;;;;16.67;3.35;;;9.80;99.90;;;;;;6336005;22;20226;-85
2024/02/05 05:57:14;;;;;;;22.48;4.40;;;9.80;99.90;;;;;;6282410;22;20303;-87
2024/02/05 05:59:41;;;;;;;26.10;4.15;;;9.80;99.90;;;;;;6282585;22;20014;-87
2024/02/05 06:02:07;;;;;;;23.25;5.05;;;9.80;99.90;;;;;;6308240;22;20003;-86
2024/02/05 06:04:35;;;;;;;20.67;3.45;;;9.80;99.90;;;;;;6308577;22;20015;-87
2024/02/05 06:07:04;;;;;;;29.63;5.25;;;9.80;99.90;;;;;;6308439;22;20017;-88
2024/02/05 06:09:30;;;;;;;21.90;3.97;;;9.80;99.90;;;;;;6282141;22;19999;-86
2024/02/05 06:11:55;;;;;;;18.23;3.22;;;9.80;99.90;;;;;;6334519;22;20006;-88
2024/02/05 06:14:21;;;;;;;22.25;3.30;;;9.80;99.90;;;;;;6282200;22;20522;-86
2024/02/05 06:16:47;;;;;;;26.50;4.40;;;9.80;99.90;;;;;;6307960;22;20229;-87
2024/02/05 06:19:12;;;;;;;20.92;4.88;;;9.80;99.90;;;;;;6307970;22;20034;-87
2024/02/05 06:21:38;;;;;;;23.52;3.97;;;9.80;99.90;;;;;;6308277;22;20044;-88
2024/02/05 06:24:04;;;;;;;29.75;4.47;;;9.80;99.90;;;;;;6282205;22;20014;-85
2024/02/05 06:26:30;;;;;;;19.52;4.07;;;9.80;99.90;;;;;;6282358;22;20425;-89
2024/02/05 06:28:55;;;;;;;22.65;4.25;;;9.70;99.90;;;;;;6282201;22;20326;-86
2024/02/05 06:31:21;;;;;;;27.63;4.50;;;9.80;99.90;;;;;;6281050;22;20003;-89
2024/02/05 06:33:47;;;;;;;29.42;4.30;;;9.70;99.90;;;;;;6271974;22;20226;-83
2024/02/05 06:36:13;;;;;;;23.80;4.00;;;9.70;99.90;;;;;;6292725;22;20041;-84
2024/02/05 06:38:40;;;;;;;22.23;5.30;;;9.70;99.90;;;;;;6304993;22;20003;-86
2024/02/05 06:41:06;;;;;;;21.95;4.53;;;9.70;99.90;;;;;;6307936;22;20435;-85
2024/02/05 06:43:33;;;;;;;29.02;5.13;;;9.70;99.90;;;;;;6281142;22;20002;-85
2024/02/05 06:45:59;;;;;;;30.05;4.30;;;9.70;99.90;;;;;;6282610;22;20014;-84
2024/02/05 06:48:26;;;;;;;28.63;4.35;;;9.70;99.90;;;;;;6307511;22;20021;-84
2024/02/05 06:50:51;;;;;;;24.65;4.22;;;9.60;99.90;;;;;;6307466;22;20095;-84
2024/02/05 06:53:17;;;;;;;25.15;4.18;;;9.70;99.90;;;;;;6307269;22;20057;-85
2024/02/05 06:55:43;;;;;;;19.40;3.78;;;9.70;99.90;;;;;;6335069;22;20018;-85
2024/02/05 06:58:12;;;;;;;21.63;4.82;;;9.60;99.90;;;;;;6307196;22;20466;-84
2024/02/05 07:00:38;;;;;;;25.38;4.47;;;9.60;99.90;;;;;;6335251;22;20082;-84
2024/02/05 07:03:05;;;;;;;23.88;3.33;;;9.60;99.90;;;;;;6335821;22;20007;-85
2024/02/05 07:05:30;;;;;;;26.67;4.40;;;9.60;99.90;;;;;;6307499;22;20345;-85
2024/02/05 07:07:56;;;;;;;19.30;4.25;;;9.70;99.90;;;;;;6282223;22;20003;-85
2024/02/05 07:10:22;;;;;;;30.77;4.75;;;9.60;99.90;;;;;;6307043;22;20013;-84
2024/02/05 07:12:48;;;;;;;23.90;4.22;;;9.60;99.90;;;;;;6307599;22;19999;-86
2024/02/05 07:15:13;;;;;;;26.13;4.47;;;9.60;99.90;;;;;;6306532;22;20031;-86
2024/02/05 07:17:39;;;;;;;27.20;4.57;;;9.60;99.90;;;;;;6281585;22;20007;-85
2024/02/05 07:20:05;;;;;;;17.40;3.75;;;9.60;99.90;;;;;;6307484;22;20471;-85
2024/02/05 07:22:31;;;;;;;17.83;3.42;;;9.60;99.90;;;;;;6281745;22;20007;-86
2024/02/05 07:24:57;;;;;;;19.05;3.47;;;9.60;99.90;;;;;;6307433;22;20103;-86
2024/02/05 07:27:25;;;;;;;24.75;3.90;;;9.60;99.90;;;;;;6281211;22;20014;-87
2024/02/05 07:29:51;;;;;;;15.35;3.28;;;9.60;99.90;;;;;;6281719;22;20007;-85
2024/02/05 07:32:17;;;;;;;22.30;3.88;;;9.60;99.90;;;;;;6307153;22;20011;-84
2024/02/05 07:34:43;;;;;;;21.15;3.45;;;9.60;99.90;;;;;;6307322;22;20075;-84
2024/02/05 07:37:08;;;;;;;23.13;4.07;;;9.60;99.90;;;;;;6307054;22;20083;-85
2024/02/05 07:39:34;;;;;;;20.67;5.03;;;9.60;99.90;;;;;;6280717;22;20347;-86
2024/02/05 07:42:00;;;;;;;23.80;4.90;;;9.60;99.90;;;;;;6307121;22;20002;-85
2024/02/05 07:44:26;;;;;;;19.27;3.20;;;9.60;99.90;;;;;;6281303;22;20011;-85
2024/02/05 07:46:53;;;;;;;27.38;4.63;;;9.60;99.90;;;;;;6307271;22;20500;-87
2024/02/05 07:49:19;;;;;;;23.80;4.60;;;9.60;99.90;;;;;;6280938;22;20015;-87
2024/02/05 07:51:46;;;;;;;19.13;4.13;;;9.60;99.90;;;;;;6306623;22;20321;-86
2024/02/05 07:54:15;;;;;;;19.98;3.72;;;9.60;99.90;;;;;;6280799;22;20023;-85
2024/02/05 07:56:42;;;;;;;18.83;3.75;;;9.50;99.90;;;;;;6306279;22;20172;-85
2024/02/05 07:59:11;;;;;;;24.75;4.45;;;9.60;99.90;;;;;;6281034;22;20068;-86
2024/02/05 08:01:37;;;;;;;21.10;3.90;;;9.60;99.90;;;;;;6305940;22;20121;-85
2024/02/05 08:04:03;;;;;;;24.10;5.00;;;9.60;99.90;;;;;;6306026;22;20321;-86
2024/02/05 08:06:30;;;;;;;23.52;4.10;;;9.60;99.90;;;;;;6333234;22;20018;-87
2024/02/05 08:08:56;;;;;;;17.48;3.33;;;9.60;99.90;;;;;;6280862;22;20010;-86
2024/02/05 08:11:24;;;;;;;18.38;4.18;;;9.60;99.90;;;;;;6306055;22;20007;-85
2024/02/05 08:13:50;;;;;;;22.50;4.82;;;9.60;99.90;;;;;;6280832;22;20075;-86
2024/02/05 08:16:16;;;;;;;24.13;4.18;;;9.60;99.90;;;;;;6306175;22;20460;-88
2024/02/05 08:18:41;;;;;;;23.25;5.55;;;9.60;99.90;;;;;;6280845;22;20003;-86
2024/02/05 08:21:07;;;;;;;31.30;4.65;;;9.60;99.90;;;;;;6280566;22;20015;-85
2024/02/05 08:23:34;;;;;;;30.48;5.22;;;9.60;99.90;;;;;;6306321;22;20335;-85
2024/02/05 08:26:00;;;;;;;22.15;5.53;;;9.60;99.90;;;;;;6306558;22;20068;-88
2024/02/05 08:28:26;;;;;;;16.48;3.90;;;9.60;99.90;;;;;;6306442;22;19998;-85
2024/02/05 08:30:51;;;;;;;18.13;4.00;;;9.60;99.90;;;;;;6280996;22;20014;-85
2024/02/05 08:33:17;;;;;;;21.75;4.82;;;9.60;99.90;;;;;;6280440;22;20144;-85
2024/02/05 08:35:43;;;;;;;20.42;4.13;;;9.60;99.90;;;;;;6306634;22;20003;-87
2024/02/05 08:38:09;;;;;;;20.92;4.38;;;9.60;99.90;;;;;;6279984;22;20450;-85
2024/02/05 08:40:34;;;;;;;25.65;5.50;;;9.60;99.90;;;;;;6306339;22;20007;-86
2024/02/05 08:43:00;;;;;;;27.58;5.50;;;9.50;99.90;;;;;;6305709;22;20105;-86
2024/02/05 08:45:27;;;;;;;25.40;5.43;;;9.50;99.90;;;;;;6280370;22;20059;-85
2024/02/05 08:47:53;;;;;;;30.52;4.85;;;9.60;99.90;;;;;;6280432;22;20025;-87
2024/02/05 08:50:19;;;;;;;22.80;5.80;;;9.60;99.90;;;;;;6280507;22;20439;-85
2024/02/05 08:52:46;;;;;;;28.10;5.85;;;9.60;99.90;;;;;;6334540;22;20058;-85
2024/02/05 08:55:12;;;;;;;20.10;5.55;;;9.60;99.90;;;;;;6280335;22;20092;-85
2024/02/05 08:57:41;;;;;;;26.88;6.60;;;9.70;99.90;;;;;;6280297;22;20011;-87
2024/02/05 09:00:11;;;;;;;33.85;7.55;;;9.60;99.90;;;;;;6306800;22;20057;-86
2024/02/05 09:02:37;;;;;;;26.87;6.13;;;9.70;99.90;;;;;;6280678;22;20013;-85
2024/02/05 09:05:03;;;;;;;29.52;6.63;;;9.60;99.90;;;;;;6280427;22;20245;-86
2024/02/05 09:07:29;;;;;;;24.35;6.80;;;9.60;99.90;;;;;;6333446;22;20011;-86
2024/02/05 09:09:56;;;;;;;25.52;7.50;;;9.60;99.90;;;;;;6306758;22;20018;-85
2024/02/05 09:12:22;;;;;;;22.13;7.47;;;9.60;99.90;;;;;;6306012;22;20007;-84
2024/02/05 09:14:49;;;;;;;24.42;8.68;;;9.70;99.90;;;;;;6280725;22;20042;-86
2024/02/05 09:17:16;;;;;;;20.73;6.93;;;9.70;99.90;;;;;;6308091;22;20366;-85
2024/02/05 09:19:42;;;;;;;23.73;7.50;;;9.60;99.90;;;;;;6282408;22;20015;-85
2024/02/05 09:22:08;;;;;;;25.30;7.07;;;9.60;99.90;;;;;;6308528;22;20003;-84
2024/02/05 09:24:34;;;;;;;27.70;7.78;;;9.60;99.90;;;;;;6282409;22;20030;-87
2024/02/05 09:26:59;;;;;;;30.88;8.25;;;9.60;99.90;;;;;;6282033;22;20026;-85
2024/02/05 09:29:25;;;;;;;25.40;8.63;;;9.70;99.90;;;;;;6308352;22;20007;-85
2024/02/05 09:31:52;;;;;;;26.85;7.75;;;9.70;99.90;;;;;;6308036;22;19999;-85
2024/02/05 09:34:18;;;;;;;28.10;7.57;;;9.80;99.90;;;;;;6307820;22;20006;-87
2024/02/05 09:36:44;;;;;;;26.35;7.25;;;9.70;99.90;;;;;;6334493;22;20033;-86
2024/02/05 09:39:11;;;;;;;22.65;6.38;;;9.70;99.90;;;;;;6308149;22;20061;-85
2024/02/05 09:41:39;;;;;;;27.60;7.82;;;9.80;99.90;;;;;;6307876;22;20443;-86
2024/02/05 09:44:05;;;;;;;20.70;6.57;;;9.70;99.90;;;;;;6308449;22;20003;-85
2024/02/05 09:46:32;;;;;;;23.90;5.75;;;9.80;99.90;;;;;;6307738;22;20017;-86
2024/02/05 09:49:05;;;;;;;25.92;5.85;;;9.70;99.90;;;;;;6307651;22;20463;-85
2024/02/05 09:51:37;;;;;;;22.45;5.55;;;9.70;99.90;;;;;;6307018;22;20018;-86
2024/02/05 09:54:03;;;;;;;27.38;5.50;;;9.70;99.90;;;;;;6333786;22;20007;-90
2024/02/05 09:56:35;;;;;;;26.25;5.10;;;9.70;99.90;;;;;;6281960;22;20401;-86
2024/02/05 09:59:01;;;;;;;27.85;5.07;;;9.70;99.90;;;;;;6282020;22;20013;-86
2024/02/05 10:01:27;;;;;;;21.65;4.40;;;9.70;99.90;;;;;;6282084;22;20007;-85
2024/02/05 10:03:57;;;;;;;18.70;4.43;;;9.60;99.90;;;;;;6307599;22;20003;-88
2024/02/05 10:06:30;;;;;;;22.10;5.00;;;9.60;99.90;;;;;;6307475;22;20018;-86
2024/02/05 10:09:04;;;;;;;19.88;4.68;;;9.70;99.90;;;;;;6307408;22;20014;-86
2024/02/05 10:11:31;;;;;;;23.27;4.20;;;9.70;99.90;;;;;;6306999;22;20010;-89
2024/02/05 10:13:57;;;;;;;21.48;4.47;;;9.70;99.90;;;;;;6335075;22;20451;-88
2024/02/05 10:16:23;;;;;;;23.17;3.92;;;9.70;99.90;;;;;;6281413;22;20030;-86
2024/02/05 10:18:49;;;;;;;22.55;4.45;;;9.70;99.90;;;;;;6333805;22;20003;-89
2024/02/05 10:21:17;;;;;;;16.92;2.75;;;9.70;99.90;;;;;;6281936;22;20462;-86
2024/02/05 10:23:53;;;;;;;22.73;4.32;;;9.70;99.90;;;;;;6282003;22;20041;-86
2024/02/05 10:26:19;;;;;;;21.67;4.65;;;9.70;99.90;;;;;;6306542;22;20076;-87
2024/02/05 10:28:44;;;;;;;25.88;3.95;;;9.80;99.90;;;;;;6307556;22;20081;-89
2024/02/05 10:31:10;;;;;;;26.33;5.38;;;9.70;99.90;;;;;;6333583;22;20013;-89
2024/02/05 10:33:39;;;;;;;27.48;4.40;;;9.80;99.90;;;;;;6281998;22;20327;-85
2024/02/05 10:36:05;;;;;;;23.35;4.75;;;9.80;99.90;;;;;;6282141;22;20007;-87
2024/02/05 10:38:35;;;;;;;22.55;5.35;;;9.80;99.90;;;;;;6307313;22;20060;-88
2024/02/05 10:41:02;;;;;;;20.15;4.97;;;9.80;99.90;;;;;;6281327;22;20003;-85
2024/02/05 10:43:27;;;;;;;23.75;5.15;;;9.90;99.90;;;;;;6307303;22;20002;-85
2024/02/05 10:46:00;;;;;;;16.92;4.00;;;9.90;99.90;;;;;;6281562;22;20013;-87
2024/02/05 10:48:26;;;;;;;24.33;5.15;;;10.00;99.90;;;;;;6307180;22;20093;-87
2024/02/05 10:50:52;;;;;;;21.42;4.10;;;9.90;99.90;;;;;;6307369;22;20483;-88
2024/02/05 10:53:18;;;;;;;20.15;5.38;;;10.00;99.90;;;;;;6281968;22;20010;-86
2024/02/05 10:55:45;;;;;;;24.55;5.60;;;10.00;99.90;;;;;;6281218;22;20060;-86
2024/02/05 10:58:13;;;;;;;21.15;5.97;;;10.10;99.90;;;;;;6281313;22;20042;-87
2024/02/05 11:00:40;;;;;;;24.35;5.32;;;10.10;99.90;;;;;;6333186;22;20347;-87
2024/02/05 11:03:09;;;;;;;17.58;5.13;;;10.10;99.90;;;;;;6307263;22;20002;-86
2024/02/05 11:05:37;;;;;;;24.02;5.90;;;10.10;99.90;;;;;;6307507;22;20503;-86
2024/02/05 11:08:11;;;;;;;28.80;5.55;;;10.00;99.90;;;;;;6281949;22;20071;-86
2024/02/05 11:10:45;;;;;;;21.30;7.05;;;10.00;99.90;;;;;;6306982;22;20007;-88
2024/02/05 11:13:21;;;;;;;17.75;5.85;;;10.10;99.90;;;;;;6307206;22;20014;-86
2024/02/05 11:15:49;;;;;;;20.10;6.88;;;10.30;99.90;;;;;;6280963;22;20010;-87
2024/02/05 11:18:34;;;;;;;27.42;8.18;;;10.30;99.90;;;;;;6306844;22;20082;-88
2024/02/05 11:21:03;;;;;;;28.30;9.27;;;10.30;99.90;;;;;;6306395;22;20010;-87
2024/02/05 11:23:32;;;;;;;23.40;9.52;;;10.30;99.90;;;;;;6306923;22;20007;-86
2024/02/05 11:25:58;;;;;;;21.40;7.53;;;10.40;99.90;;;;;;6306626;22;20105;-85
2024/02/05 11:28:24;;;;;;;21.85;7.78;;;10.50;99.90;;;;;;6306405;22;20237;-85
2024/02/05 11:30:50;;;;;;;27.65;9.18;;;10.60;99.90;;;;;;6307486;22;20051;-85
2024/02/05 11:33:26;;;;;;;20.27;8.95;;;10.50;99.90;;;;;;6307297;22;20003;-87
2024/02/05 11:35:54;;;;;;;20.23;7.90;;;10.40;99.90;;;;;;6281237;22;20011;-88
2024/02/05 11:38:21;;;;;;;25.05;8.30;;;10.40;99.90;;;;;;6306464;22;20028;-87
2024/02/05 11:40:51;;;;;;;21.95;7.60;;;10.50;99.90;;;;;;6280892;22;20032;-86
2024/02/05 11:43:23;;;;;;;;;;;10.50;99.90;;;;;;6306197;22;20003;-87
2024/02/05 11:45:50;;;;;;;21.90;7.03;;;10.50;99.90;;;;;;6307212;22;19910;-86
2024/02/05 11:48:17;;;;;;;17.83;5.93;;;10.60;99.90;;;;;;6334059;22;20011;-87
2024/02/05 11:50:42;;;;;;;19.52;6.03;;;10.50;99.90;;;;;;6281735;22;20011;-86
2024/02/05 11:53:08;;;;;;;20.85;5.78;;;10.50;99.90;;;;;;6333674;22;19998;-86
2024/02/05 11:55:36;;;;;;;15.98;4.90;;;10.70;99.90;;;;;;6332373;22;20030;-86
2024/02/05 11:58:01;;;;;;;14.77;3.92;;;10.90;99.90;;;;;;6307121;22;20015;-85
2024/02/05 12:00:28;;;;;;;20.80;5.40;;;11.00;99.90;;;;;;6280975;22;20009;-85
2024/02/05 12:02:54;;;;;;;19.02;6.88;;;11.00;99.90;;;;;;6306570;22;20038;-85
2024/02/05 12:05:24;;;;;;;24.60;7.00;;;10.90;99.90;;;;;;6334290;22;20446;-89
2024/02/05 12:07:51;;;;;;;16.95;5.80;;;10.70;99.90;;;;;;6306865;22;20003;-87
2024/02/05 12:10:17;;;;;;;20.90;5.75;;;10.90;99.90;;;;;;6333798;22;20014;-86
2024/02/05 12:12:43;;;;;;;15.07;5.63;;;11.00;99.90;;;;;;6332937;22;20007;-85
2024/02/05 12:15:20;;;;;;;17.33;5.28;;;11.20;99.90;;;;;;6281031;22;20014;-85
2024/02/05 12:17:48;;;;;;;26.05;5.00;;;11.30;99.90;;;;;;6333914;22;20119;-86
2024/02/05 12:20:22;;;;;;;20.90;5.13;;;11.40;99.90;;;;;;6279994;22;20003;-86
2024/02/05 12:22:48;;;;;;;21.85;6.15;;;11.30;99.90;;;;;;6306745;22;20334;-86
2024/02/05 12:25:15;;;;;;;15.73;3.40;;;11.20;99.90;;;;;;6306017;22;19999;-85
2024/02/05 12:27:42;;;;;;;22.23;6.57;;;11.30;99.90;;;;;;6306836;22;20378;-86
2024/02/05 12:30:08;;;;;;;16.77;4.97;;;11.30;99.90;;;;;;6307083;22;20083;-86
2024/02/05 12:32:34;;;;;;;17.75;5.43;;;11.40;99.90;;;;;;6306586;22;20011;-85
2024/02/05 12:35:00;;;;;;;23.05;6.47;;;11.30;99.90;;;;;;6306805;22;20029;-88
2024/02/05 12:37:26;;;;;;;26.48;5.78;;;11.30;99.90;;;;;;6306653;22;20011;-86
2024/02/05 12:39:53;;;;;;;23.15;5.57;;;11.30;99.90;;;;;;6280083;22;20013;-86